Terminal Aerodrome Forecast
Issued by NWS

Home | Current Version | Previous Version | Text Only | Print | Product List | Glossary On
Versions: 1 2 3 4 5 6 7 8 9 10 11 12
000
FTUS45 KCYS 262327
TAFAIA
TAF
KAIA 262327Z 2700/2724 16010KT P6SM SCT250
     FM270100 15012KT P6SM VCTS SCT060CB BKN150
     FM270400 05010KT P6SM BKN200
     FM271000 08008KT P6SM -RA BKN012
     FM271600 04009G16KT P6SM SCT020=

USA.gov is the U.S. government's official web portal to all federal, state and local government web resources and services.